Time,TemperatureF,DewpointF,PressureIn,WindDirection,WindDirectionDegrees,WindSpeedMPH,WindSpeedGustMPH,Humidity,HourlyPrecipIn,Conditions,Clouds,dailyrainin,SoftwareType,DateUTC
2013-08-30 00:03:00,75.0,69.0,29.79,NNW,342,2.0,-999.0,82,-99.99,,,-99.99,,2013-08-30 05:03:00,
2013-08-30 00:23:00,75.0,69.0,29.79,NNW,347,1.0,-999.0,83,-99.99,,,-99.99,,2013-08-30 05:23:00,
2013-08-30 00:52:00,74.0,69.0,29.79,NNW,344,1.0,-999.0,84,-99.99,,,-99.99,,2013-08-30 05:52:00,
2013-08-30 01:12:00,73.0,68.0,29.80,NNW,344,1.0,-999.0,85,-99.99,,,-99.99,,2013-08-30 06:12:00,
2013-08-30 01:22:00,73.0,69.0,29.80,NNW,344,2.0,-999.0,86,-99.99,,,-99.99,,2013-08-30 06:22:00,
2013-08-30 01:53:00,71.0,67.0,29.80,NNW,341,1.0,-999.0,88,-99.99,,,-99.99,,2013-08-30 06:53:00,
2013-08-30 02:12:00,71.0,68.0,29.80,NNW,340,1.0,-999.0,89,-99.99,,,-99.99,,2013-08-30 07:12:00,
2013-08-30 02:21:00,71.0,68.0,29.80,NNW,340,2.0,-999.0,89,-99.99,,,-99.99,,2013-08-30 07:21:00,
2013-08-30 02:53:00,70.0,67.0,29.80,NNW,339,1.0,-999.0,90,-99.99,,,-99.99,,2013-08-30 07:53:00,
2013-08-30 03:11:00,70.0,67.0,29.80,NNW,340,2.0,-999.0,90,-99.99,,,-99.99,,2013-08-30 08:11:00,
2013-08-30 03:22:00,69.0,66.0,29.81,NNW,339,1.0,-999.0,91,-99.99,,,-99.99,,2013-08-30 08:22:00,
2013-08-30 03:42:00,69.0,66.0,29.81,NNW,337,1.0,-999.0,91,-99.99,,,-99.99,,2013-08-30 08:42:00,
2013-08-30 03:52:00,69.0,66.0,29.81,NNW,336,1.0,-999.0,91,-99.99,,,-99.99,,2013-08-30 08:52:00,
2013-08-30 04:12:00,69.0,66.0,29.82,NNW,338,2.0,-999.0,91,-99.99,,,-99.99,,2013-08-30 09:12:00,
2013-08-30 04:22:00,69.0,66.0,29.81,NNW,339,1.0,-999.0,91,-99.99,,,-99.99,,2013-08-30 09:22:00,
2013-08-30 04:44:00,68.0,66.0,29.82,NNW,340,0.0,-999.0,92,-99.99,,,-99.99,,2013-08-30 09:44:00,
2013-08-30 04:53:00,68.0,66.0,29.82,NNW,338,1.0,-999.0,92,-99.99,,,-99.99,,2013-08-30 09:53:00,
2013-08-30 05:12:00,68.0,66.0,29.83,NNW,340,1.0,-999.0,93,-99.99,,,-99.99,,2013-08-30 10:12:00,
2013-08-30 05:23:00,67.0,65.0,29.83,NNW,340,1.0,-999.0,93,-99.99,,,-99.99,,2013-08-30 10:23:00,
2013-08-30 05:53:00,67.0,65.0,29.83,NNW,340,0.0,-999.0,93,-99.99,,,-99.99,,2013-08-30 10:53:00,
2013-08-30 06:12:00,67.0,65.0,29.83,NNW,338,0.0,-999.0,94,-99.99,,,-99.99,,2013-08-30 11:12:00,
2013-08-30 06:22:00,67.0,65.0,29.83,NNW,340,0.0,-999.0,94,-99.99,,,-99.99,,2013-08-30 11:22:00,
2013-08-30 06:52:00,66.0,64.0,29.84,NNW,340,1.0,-999.0,94,-99.99,,,-99.99,,2013-08-30 11:52:00,
2013-08-30 07:12:00,66.0,64.0,29.83,NNW,340,1.0,-999.0,94,-99.99,,,-99.99,,2013-08-30 12:12:00,
2013-08-30 07:21:00,66.0,64.0,29.83,NNW,340,0.0,-999.0,94,-99.99,,,-99.99,,2013-08-30 12:21:00,
2013-08-30 07:42:00,66.0,64.0,29.84,NNW,340,0.0,-999.0,94,-99.99,,,-99.99,,2013-08-30 12:42:00,
2013-08-30 07:52:00,66.0,65.0,29.85,NNW,340,1.0,-999.0,95,-99.99,,,-99.99,,2013-08-30 12:52:00,
2013-08-30 08:11:00,66.0,65.0,29.85,North,355,2.0,-999.0,95,-99.99,,,-99.99,,2013-08-30 13:11:00,
2013-08-30 08:21:00,67.0,65.0,29.86,North,355,2.0,-999.0,94,-99.99,,,-99.99,,2013-08-30 13:21:00,
2013-08-30 08:52:00,68.0,65.0,29.87,North,11,3.0,-999.0,91,-99.99,,,-99.99,,2013-08-30 13:52:00,
2013-08-30 09:21:00,69.0,65.0,29.88,North,5,2.0,-999.0,87,-99.99,,,-99.99,,2013-08-30 14:21:00,
2013-08-30 09:52:00,74.0,66.0,29.88,NNE,16,2.0,-999.0,77,-99.99,,,-99.99,,2013-08-30 14:52:00,
2013-08-30 10:11:00,74.0,66.0,29.88,North,5,4.0,-999.0,75,-99.99,,,-99.99,,2013-08-30 15:11:00,
2013-08-30 10:22:00,74.0,65.0,29.88,North,360,3.0,-999.0,74,-99.99,,,-99.99,,2013-08-30 15:22:00,
2013-08-30 10:43:00,76.0,66.0,29.88,NNE,13,2.0,-999.0,71,-99.99,,,-99.99,,2013-08-30 15:43:00,
2013-08-30 10:54:00,76.0,65.0,29.88,North,11,2.0,-999.0,70,-99.99,,,-99.99,,2013-08-30 15:54:00,
2013-08-30 11:13:00,76.0,65.0,29.89,NNE,12,1.0,-999.0,69,-99.99,,,-99.99,,2013-08-30 16:13:00,
2013-08-30 11:25:00,77.0,65.0,29.89,NNE,15,2.0,-999.0,67,-99.99,,,-99.99,,2013-08-30 16:25:00,
2013-08-30 11:43:00,78.0,65.0,29.89,NNE,15,1.0,-999.0,64,-99.99,,,-99.99,,2013-08-30 16:43:00,
2013-08-30 11:53:00,78.0,65.0,29.89,NNE,26,1.0,-999.0,65,-99.99,,,-99.99,,2013-08-30 16:53:00,
2013-08-30 12:13:00,79.0,66.0,29.88,North,360,1.0,-999.0,64,-99.99,,,-99.99,,2013-08-30 17:13:00,
2013-08-30 12:23:00,80.0,66.0,29.88,NNE,32,1.0,-999.0,62,-99.99,,,-99.99,,2013-08-30 17:23:00,
2013-08-30 12:53:00,81.0,65.0,29.88,North,360,1.0,-999.0,59,-99.99,,,-99.99,,2013-08-30 17:53:00,
2013-08-30 13:22:00,82.0,66.0,29.88,NE,44,2.0,-999.0,59,-99.99,,,-99.99,,2013-08-30 18:22:00,
2013-08-30 13:52:00,83.0,67.0,29.87,NE,41,1.0,-999.0,58,-99.99,,,-99.99,,2013-08-30 18:52:00,
2013-08-30 14:12:00,82.0,66.0,29.87,NE,39,1.0,-999.0,58,-99.99,,,-99.99,,2013-08-30 19:12:00,
2013-08-30 14:22:00,83.0,66.0,29.87,North,360,1.0,-999.0,57,-99.99,,,-99.99,,2013-08-30 19:22:00,
2013-08-30 14:53:00,84.0,66.0,29.86,NE,34,3.0,-999.0,55,-99.99,,,-99.99,,2013-08-30 19:53:00,
2013-08-30 15:11:00,85.0,67.0,29.86,North,360,2.0,-999.0,55,-99.99,,,-99.99,,2013-08-30 20:11:00,
2013-08-30 15:22:00,85.0,67.0,29.86,North,360,2.0,-999.0,55,-99.99,,,-99.99,,2013-08-30 20:22:00,
2013-08-30 15:52:00,86.0,66.0,29.85,North,360,1.0,-999.0,52,-99.99,,,-99.99,,2013-08-30 20:52:00,
2013-08-30 16:22:00,86.0,66.0,29.85,NNE,24,1.0,-999.0,51,-99.99,,,-99.99,,2013-08-30 21:22:00,
2013-08-30 16:54:00,86.0,65.0,29.84,NNE,24,0.0,-999.0,50,-99.99,,,-99.99,,2013-08-30 21:54:00,
2013-08-30 17:24:00,85.0,65.0,29.83,NE,35,1.0,-999.0,52,-99.99,,,-99.99,,2013-08-30 22:24:00,
2013-08-30 17:54:00,85.0,65.0,29.83,NE,35,1.0,-999.0,51,-99.99,,,-99.99,,2013-08-30 22:54:00,
2013-08-30 18:12:00,84.0,65.0,29.82,NE,38,2.0,-999.0,53,-99.99,,,-99.99,,2013-08-30 23:12:00,
2013-08-30 18:22:00,85.0,66.0,29.82,NE,38,1.0,-999.0,53,-99.99,,,-99.99,,2013-08-30 23:22:00,
2013-08-30 18:53:00,83.0,65.0,29.82,NE,38,0.0,-999.0,55,-99.99,,,-99.99,,2013-08-30 23:53:00,
2013-08-30 19:11:00,83.0,66.0,29.81,NE,39,0.0,-999.0,56,-99.99,,,-99.99,,2013-08-31 00:11:00,
2013-08-30 19:22:00,83.0,66.0,29.81,NE,39,1.0,-999.0,57,-99.99,,,-99.99,,2013-08-31 00:22:00,
2013-08-30 19:52:00,82.0,68.0,29.81,NE,39,0.0,-999.0,62,-99.99,,,-99.99,,2013-08-31 00:52:00,
2013-08-30 20:11:00,81.0,67.0,29.81,NE,39,0.0,-999.0,63,-99.99,,,-99.99,,2013-08-31 01:11:00,
2013-08-30 20:21:00,80.0,67.0,29.80,NE,39,0.0,-999.0,65,-99.99,,,-99.99,,2013-08-31 01:21:00,
2013-08-30 20:52:00,77.0,66.0,29.80,NE,39,0.0,-999.0,69,-99.99,,,-99.99,,2013-08-31 01:52:00,
2013-08-30 21:12:00,76.0,65.0,29.80,NE,38,0.0,-999.0,70,-99.99,,,-99.99,,2013-08-31 02:12:00,
2013-08-30 21:22:00,75.0,65.0,29.80,NE,39,0.0,-999.0,72,-99.99,,,-99.99,,2013-08-31 02:22:00,
2013-08-30 21:42:00,74.0,65.0,29.80,NE,39,0.0,-999.0,74,-99.99,,,-99.99,,2013-08-31 02:42:00,
2013-08-30 21:52:00,73.0,65.0,29.80,NE,39,0.0,-999.0,76,-99.99,,,-99.99,,2013-08-31 02:52:00,
2013-08-30 22:22:00,72.0,65.0,29.80,NE,38,0.0,-999.0,78,-99.99,,,-99.99,,2013-08-31 03:22:00,
2013-08-30 22:54:00,71.0,65.0,29.80,NE,39,0.0,-999.0,80,-99.99,,,-99.99,,2013-08-31 03:54:00,
2013-08-30 23:14:00,70.0,64.0,29.79,NE,39,0.0,-999.0,81,-99.99,,,-99.99,,2013-08-31 04:14:00,
2013-08-30 23:24:00,70.0,64.0,29.81,NE,39,0.0,-999.0,82,-99.99,,,-99.99,,2013-08-31 04:24:00,
2013-08-30 23:54:00,70.0,65.0,29.81,NE,38,0.0,-999.0,83,-99.99,,,-99.99,,2013-08-31 04:54:00,